sensor_id;sensor_type;location;lat;lon;timestamp;P1;durP1;ratioP1;P2;durP2;ratioP2
27580;SDS011;15013;52.298;7.978;2022-08-11T00:04:15;6.40;;;3.63;;
27580;SDS011;15013;52.298;7.978;2022-08-11T00:09:17;3.88;;;3.53;;
27580;SDS011;15013;52.298;7.978;2022-08-11T00:14:19;7.88;;;3.95;;
27580;SDS011;15013;52.298;7.978;2022-08-11T00:19:21;6.32;;;3.85;;
27580;SDS011;15013;52.298;7.978;2022-08-11T00:24:23;6.72;;;4.20;;
27580;SDS011;15013;52.298;7.978;2022-08-11T00:29:23;7.68;;;4.10;;
27580;SDS011;15013;52.298;7.978;2022-08-11T00:34:25;5.83;;;4.20;;
27580;SDS011;15013;52.298;7.978;2022-08-11T00:39:26;7.38;;;4.68;;
27580;SDS011;15013;52.298;7.978;2022-08-11T00:55:02;4.18;;;3.78;;
27580;SDS011;15013;52.298;7.978;2022-08-11T01:00:15;6.50;;;4.68;;
27580;SDS011;15013;52.298;7.978;2022-08-11T01:58:00;6.32;;;5.15;;
27580;SDS011;15013;52.298;7.978;2022-08-11T02:13:28;6.93;;;4.93;;
27580;SDS011;15013;52.298;7.978;2022-08-11T02:18:33;8.45;;;5.32;;
27580;SDS011;15013;52.298;7.978;2022-08-11T02:23:56;9.80;;;5.60;;
27580;SDS011;15013;52.298;7.978;2022-08-11T02:29:04;7.85;;;5.43;;
27580;SDS011;15013;52.298;7.978;2022-08-11T02:34:15;8.25;;;5.13;;
27580;SDS011;15013;52.298;7.978;2022-08-11T02:39:18;6.75;;;4.90;;
27580;SDS011;15013;52.298;7.978;2022-08-11T02:44:33;8.80;;;5.70;;
27580;SDS011;15013;52.298;7.978;2022-08-11T02:55:17;6.30;;;5.45;;
27580;SDS011;15013;52.298;7.978;2022-08-11T03:00:18;8.45;;;5.60;;
27580;SDS011;15013;52.298;7.978;2022-08-11T03:05:25;8.38;;;5.82;;
27580;SDS011;15013;52.298;7.978;2022-08-11T03:15:51;9.07;;;6.05;;
27580;SDS011;15013;52.298;7.978;2022-08-11T03:21:21;8.93;;;5.65;;
27580;SDS011;15013;52.298;7.978;2022-08-11T03:26:42;9.90;;;5.75;;
27580;SDS011;15013;52.298;7.978;2022-08-11T03:31:48;8.18;;;5.05;;
27580;SDS011;15013;52.298;7.978;2022-08-11T04:13:08;11.75;;;6.40;;
27580;SDS011;15013;52.298;7.978;2022-08-11T04:54:57;9.30;;;7.88;;
27580;SDS011;15013;52.298;7.978;2022-08-11T05:00:20;9.75;;;7.72;;
27580;SDS011;15013;52.298;7.978;2022-08-11T05:11:18;13.90;;;7.47;;
27580;SDS011;15013;52.298;7.978;2022-08-11T05:16:27;11.93;;;7.88;;
27580;SDS011;15013;52.298;7.978;2022-08-11T05:21:50;12.07;;;7.80;;
27580;SDS011;15013;52.298;7.978;2022-08-11T05:27:11;15.13;;;8.90;;
27580;SDS011;15013;52.298;7.978;2022-08-11T05:32:34;12.07;;;8.68;;
27580;SDS011;15013;52.298;7.978;2022-08-11T05:37:54;13.63;;;9.63;;
27580;SDS011;15013;52.298;7.978;2022-08-11T05:43:13;15.63;;;9.20;;
27580;SDS011;15013;52.298;7.978;2022-08-11T05:48:33;17.42;;;9.30;;
27580;SDS011;15013;52.298;7.978;2022-08-11T05:53:54;16.33;;;8.93;;
27580;SDS011;15013;52.298;7.978;2022-08-11T05:59:15;16.85;;;9.55;;
27580;SDS011;15013;52.298;7.978;2022-08-11T06:04:18;12.73;;;7.57;;
27580;SDS011;15013;52.298;7.978;2022-08-11T06:09:20;9.52;;;7.18;;
27580;SDS011;15013;52.298;7.978;2022-08-11T06:14:21;11.02;;;7.15;;
27580;SDS011;15013;52.298;7.978;2022-08-11T06:19:28;10.85;;;6.65;;
27580;SDS011;15013;52.298;7.978;2022-08-11T06:24:30;12.65;;;6.97;;
27580;SDS011;15013;52.298;7.978;2022-08-11T06:29:32;13.77;;;6.68;;
27580;SDS011;15013;52.298;7.978;2022-08-11T06:40:07;14.35;;;6.05;;
27580;SDS011;15013;52.298;7.978;2022-08-11T06:45:17;18.02;;;6.20;;
27580;SDS011;15013;52.298;7.978;2022-08-11T06:50:23;12.55;;;5.20;;
27580;SDS011;15013;52.298;7.978;2022-08-11T06:55:43;7.70;;;4.70;;
27580;SDS011;15013;52.298;7.978;2022-08-11T07:01:12;7.63;;;4.30;;
27580;SDS011;15013;52.298;7.978;2022-08-11T07:06:35;6.57;;;4.47;;
27580;SDS011;15013;52.298;7.978;2022-08-11T07:11:53;9.93;;;4.18;;
27580;SDS011;15013;52.298;7.978;2022-08-11T07:17:22;11.80;;;3.88;;
27580;SDS011;15013;52.298;7.978;2022-08-11T07:22:24;8.98;;;3.90;;
27580;SDS011;15013;52.298;7.978;2022-08-11T07:27:45;9.45;;;3.85;;
27580;SDS011;15013;52.298;7.978;2022-08-11T07:33:04;9.00;;;3.67;;
27580;SDS011;15013;52.298;7.978;2022-08-11T07:38:06;4.75;;;3.10;;
27580;SDS011;15013;52.298;7.978;2022-08-11T07:43:07;9.68;;;3.85;;
27580;SDS011;15013;52.298;7.978;2022-08-11T07:48:08;8.13;;;3.22;;
27580;SDS011;15013;52.298;7.978;2022-08-11T07:53:28;5.82;;;3.20;;
27580;SDS011;15013;52.298;7.978;2022-08-11T07:58:28;4.18;;;2.95;;
27580;SDS011;15013;52.298;7.978;2022-08-11T08:03:48;6.28;;;2.97;;
27580;SDS011;15013;52.298;7.978;2022-08-11T08:09:07;5.10;;;2.88;;
27580;SDS011;15013;52.298;7.978;2022-08-11T08:14:26;11.88;;;3.03;;
27580;SDS011;15013;52.298;7.978;2022-08-11T08:19:48;6.78;;;3.08;;
27580;SDS011;15013;52.298;7.978;2022-08-11T08:24:49;3.97;;;2.75;;
27580;SDS011;15013;52.298;7.978;2022-08-11T08:29:50;10.30;;;3.60;;
27580;SDS011;15013;52.298;7.978;2022-08-11T08:35:10;3.40;;;2.70;;
27580;SDS011;15013;52.298;7.978;2022-08-11T08:40:10;3.72;;;3.00;;
27580;SDS011;15013;52.298;7.978;2022-08-11T08:45:12;8.77;;;3.28;;
27580;SDS011;15013;52.298;7.978;2022-08-11T08:50:15;4.85;;;3.03;;
27580;SDS011;15013;52.298;7.978;2022-08-11T08:55:20;6.07;;;2.75;;
27580;SDS011;15013;52.298;7.978;2022-08-11T09:00:21;4.72;;;2.88;;
27580;SDS011;15013;52.298;7.978;2022-08-11T09:05:21;7.45;;;2.97;;
27580;SDS011;15013;52.298;7.978;2022-08-11T09:10:22;4.75;;;2.70;;
27580;SDS011;15013;52.298;7.978;2022-08-11T09:15:23;3.88;;;2.72;;
27580;SDS011;15013;52.298;7.978;2022-08-11T09:20:25;6.05;;;2.60;;
27580;SDS011;15013;52.298;7.978;2022-08-11T09:25:26;2.70;;;2.50;;
27580;SDS011;15013;52.298;7.978;2022-08-11T09:30:49;5.90;;;2.40;;
27580;SDS011;15013;52.298;7.978;2022-08-11T09:35:54;4.45;;;2.03;;
27580;SDS011;15013;52.298;7.978;2022-08-11T09:40:55;4.78;;;2.00;;
27580;SDS011;15013;52.298;7.978;2022-08-11T09:45:56;4.93;;;2.30;;
27580;SDS011;15013;52.298;7.978;2022-08-11T09:50:58;5.25;;;2.13;;
27580;SDS011;15013;52.298;7.978;2022-08-11T09:55:59;8.27;;;2.00;;
27580;SDS011;15013;52.298;7.978;2022-08-11T10:01:21;5.40;;;2.63;;
27580;SDS011;15013;52.298;7.978;2022-08-11T10:06:28;6.60;;;2.45;;
27580;SDS011;15013;52.298;7.978;2022-08-11T10:11:47;7.80;;;2.90;;
27580;SDS011;15013;52.298;7.978;2022-08-11T10:16:48;3.17;;;2.47;;
27580;SDS011;15013;52.298;7.978;2022-08-11T10:21:50;6.57;;;2.90;;
27580;SDS011;15013;52.298;7.978;2022-08-11T10:27:09;5.28;;;2.50;;
27580;SDS011;15013;52.298;7.978;2022-08-11T10:32:09;4.32;;;2.60;;
27580;SDS011;15013;52.298;7.978;2022-08-11T10:37:28;4.18;;;2.80;;
27580;SDS011;15013;52.298;7.978;2022-08-11T10:42:33;8.55;;;3.00;;
27580;SDS011;15013;52.298;7.978;2022-08-11T10:47:53;4.43;;;2.88;;
27580;SDS011;15013;52.298;7.978;2022-08-11T10:52:55;5.95;;;2.63;;
27580;SDS011;15013;52.298;7.978;2022-08-11T10:58:14;4.25;;;2.47;;
27580;SDS011;15013;52.298;7.978;2022-08-11T11:03:34;2.75;;;2.50;;
27580;SDS011;15013;52.298;7.978;2022-08-11T11:08:36;9.40;;;2.88;;
27580;SDS011;15013;52.298;7.978;2022-08-11T11:13:53;7.82;;;2.80;;
27580;SDS011;15013;52.298;7.978;2022-08-11T11:19:12;9.57;;;2.42;;
27580;SDS011;15013;52.298;7.978;2022-08-11T11:39:57;3.50;;;2.80;;
27580;SDS011;15013;52.298;7.978;2022-08-11T11:44:58;5.03;;;2.55;;
27580;SDS011;15013;52.298;7.978;2022-08-11T11:49:58;4.28;;;2.63;;
27580;SDS011;15013;52.298;7.978;2022-08-11T11:54:59;5.47;;;2.67;;
27580;SDS011;15013;52.298;7.978;2022-08-11T12:00:00;4.72;;;2.90;;
27580;SDS011;15013;52.298;7.978;2022-08-11T12:05:19;4.15;;;2.83;;
27580;SDS011;15013;52.298;7.978;2022-08-11T12:10:20;6.53;;;3.00;;
27580;SDS011;15013;52.298;7.978;2022-08-11T12:15:21;3.30;;;2.92;;
27580;SDS011;15013;52.298;7.978;2022-08-11T12:20:21;6.78;;;2.95;;
27580;SDS011;15013;52.298;7.978;2022-08-11T12:25:22;9.32;;;2.90;;
27580;SDS011;15013;52.298;7.978;2022-08-11T12:30:41;3.85;;;2.50;;
27580;SDS011;15013;52.298;7.978;2022-08-11T12:35:47;3.80;;;2.50;;
27580;SDS011;15013;52.298;7.978;2022-08-11T12:40:51;5.07;;;2.60;;
27580;SDS011;15013;52.298;7.978;2022-08-11T12:46:23;3.70;;;2.58;;
27580;SDS011;15013;52.298;7.978;2022-08-11T12:51:29;5.90;;;2.30;;
27580;SDS011;15013;52.298;7.978;2022-08-11T12:56:51;9.10;;;2.60;;
27580;SDS011;15013;52.298;7.978;2022-08-11T13:02:16;4.17;;;2.47;;
27580;SDS011;15013;52.298;7.978;2022-08-11T13:07:35;2.63;;;2.45;;
27580;SDS011;15013;52.298;7.978;2022-08-11T13:12:37;2.38;;;2.17;;
27580;SDS011;15013;52.298;7.978;2022-08-11T13:17:50;4.18;;;3.00;;
27580;SDS011;15013;52.298;7.978;2022-08-11T13:22:52;5.20;;;2.40;;
27580;SDS011;15013;52.298;7.978;2022-08-11T13:27:54;2.80;;;2.20;;
27580;SDS011;15013;52.298;7.978;2022-08-11T13:32:55;3.67;;;2.77;;
27580;SDS011;15013;52.298;7.978;2022-08-11T13:37:56;2.50;;;2.30;;
27580;SDS011;15013;52.298;7.978;2022-08-11T13:42:57;4.18;;;2.63;;
27580;SDS011;15013;52.298;7.978;2022-08-11T13:47:58;4.53;;;2.10;;
27580;SDS011;15013;52.298;7.978;2022-08-11T13:53:00;3.22;;;2.50;;
27580;SDS011;15013;52.298;7.978;2022-08-11T13:58:00;4.25;;;2.33;;
27580;SDS011;15013;52.298;7.978;2022-08-11T14:03:01;3.38;;;2.78;;
27580;SDS011;15013;52.298;7.978;2022-08-11T14:08:06;1.95;;;1.85;;
27580;SDS011;15013;52.298;7.978;2022-08-11T14:13:09;4.03;;;2.30;;
27580;SDS011;15013;52.298;7.978;2022-08-11T14:18:30;4.05;;;2.22;;
27580;SDS011;15013;52.298;7.978;2022-08-11T14:23:32;2.78;;;2.05;;
27580;SDS011;15013;52.298;7.978;2022-08-11T14:28:34;6.85;;;2.28;;
27580;SDS011;15013;52.298;7.978;2022-08-11T14:33:35;5.80;;;1.90;;
27580;SDS011;15013;52.298;7.978;2022-08-11T14:38:36;3.03;;;2.10;;
27580;SDS011;15013;52.298;7.978;2022-08-11T14:43:37;4.25;;;2.38;;
27580;SDS011;15013;52.298;7.978;2022-08-11T14:48:57;4.32;;;2.25;;
27580;SDS011;15013;52.298;7.978;2022-08-11T14:53:58;8.80;;;2.28;;
27580;SDS011;15013;52.298;7.978;2022-08-11T14:59:18;5.63;;;2.35;;
27580;SDS011;15013;52.298;7.978;2022-08-11T15:04:19;4.43;;;2.00;;
27580;SDS011;15013;52.298;7.978;2022-08-11T15:09:20;3.53;;;2.00;;
27580;SDS011;15013;52.298;7.978;2022-08-11T15:14:21;6.90;;;2.38;;
27580;SDS011;15013;52.298;7.978;2022-08-11T15:19:41;3.42;;;2.03;;
27580;SDS011;15013;52.298;7.978;2022-08-11T15:25:01;3.25;;;1.88;;
27580;SDS011;15013;52.298;7.978;2022-08-11T15:30:02;5.27;;;2.50;;
27580;SDS011;15013;52.298;7.978;2022-08-11T15:35:21;3.42;;;2.25;;
27580;SDS011;15013;52.298;7.978;2022-08-11T15:40:41;4.82;;;2.00;;
27580;SDS011;15013;52.298;7.978;2022-08-11T15:46:02;4.30;;;2.40;;
27580;SDS011;15013;52.298;7.978;2022-08-11T15:51:13;6.63;;;2.67;;
27580;SDS011;15013;52.298;7.978;2022-08-11T15:56:15;6.67;;;2.40;;
27580;SDS011;15013;52.298;7.978;2022-08-11T16:01:18;2.67;;;2.00;;
27580;SDS011;15013;52.298;7.978;2022-08-11T16:07:00;4.53;;;2.03;;
27580;SDS011;15013;52.298;7.978;2022-08-11T16:17:03;5.32;;;2.10;;
27580;SDS011;15013;52.298;7.978;2022-08-11T16:22:05;5.68;;;2.00;;
27580;SDS011;15013;52.298;7.978;2022-08-11T16:27:07;3.30;;;1.92;;
27580;SDS011;15013;52.298;7.978;2022-08-11T16:32:08;3.67;;;2.22;;
27580;SDS011;15013;52.298;7.978;2022-08-11T16:37:19;5.25;;;3.47;;
27580;SDS011;15013;52.298;7.978;2022-08-11T16:42:38;2.00;;;1.80;;
27580;SDS011;15013;52.298;7.978;2022-08-11T16:47:58;5.93;;;2.22;;
27580;SDS011;15013;52.298;7.978;2022-08-11T16:52:58;2.83;;;2.00;;
27580;SDS011;15013;52.298;7.978;2022-08-11T16:57:59;3.73;;;1.70;;
27580;SDS011;15013;52.298;7.978;2022-08-11T17:03:18;2.10;;;1.88;;
27580;SDS011;15013;52.298;7.978;2022-08-11T17:08:42;6.65;;;2.00;;
27580;SDS011;15013;52.298;7.978;2022-08-11T17:14:09;3.10;;;2.05;;
27580;SDS011;15013;52.298;7.978;2022-08-11T17:19:24;8.48;;;2.17;;
27580;SDS011;15013;52.298;7.978;2022-08-11T17:24:25;7.20;;;2.20;;
27580;SDS011;15013;52.298;7.978;2022-08-11T17:34:27;8.38;;;2.13;;
27580;SDS011;15013;52.298;7.978;2022-08-11T17:39:46;5.18;;;2.13;;
27580;SDS011;15013;52.298;7.978;2022-08-11T17:44:48;4.40;;;2.10;;
27580;SDS011;15013;52.298;7.978;2022-08-11T17:50:08;2.65;;;2.00;;
27580;SDS011;15013;52.298;7.978;2022-08-11T17:55:10;7.53;;;2.40;;
27580;SDS011;15013;52.298;7.978;2022-08-11T18:00:29;2.70;;;2.40;;
27580;SDS011;15013;52.298;7.978;2022-08-11T18:05:31;4.75;;;2.33;;
27580;SDS011;15013;52.298;7.978;2022-08-11T18:10:33;5.63;;;2.30;;
27580;SDS011;15013;52.298;7.978;2022-08-11T18:15:52;3.17;;;2.22;;
27580;SDS011;15013;52.298;7.978;2022-08-11T18:21:13;2.38;;;1.90;;
27580;SDS011;15013;52.298;7.978;2022-08-11T18:26:32;5.00;;;2.78;;
27580;SDS011;15013;52.298;7.978;2022-08-11T18:31:51;7.20;;;4.03;;
27580;SDS011;15013;52.298;7.978;2022-08-11T18:37:15;4.70;;;2.97;;
27580;SDS011;15013;52.298;7.978;2022-08-11T18:42:37;8.20;;;3.77;;
27580;SDS011;15013;52.298;7.978;2022-08-11T18:47:57;6.88;;;3.13;;
27580;SDS011;15013;52.298;7.978;2022-08-11T18:53:18;7.45;;;2.75;;
27580;SDS011;15013;52.298;7.978;2022-08-11T18:58:37;5.65;;;3.40;;
27580;SDS011;15013;52.298;7.978;2022-08-11T19:03:59;4.13;;;2.50;;
27580;SDS011;15013;52.298;7.978;2022-08-11T19:09:19;8.35;;;2.67;;
27580;SDS011;15013;52.298;7.978;2022-08-11T19:14:38;6.22;;;3.22;;
27580;SDS011;15013;52.298;7.978;2022-08-11T19:19:58;7.15;;;3.03;;
27580;SDS011;15013;52.298;7.978;2022-08-11T19:25:18;5.40;;;2.83;;
27580;SDS011;15013;52.298;7.978;2022-08-11T19:30:37;5.07;;;2.60;;
27580;SDS011;15013;52.298;7.978;2022-08-11T19:35:56;6.10;;;3.17;;
27580;SDS011;15013;52.298;7.978;2022-08-11T19:41:16;2.80;;;2.60;;
27580;SDS011;15013;52.298;7.978;2022-08-11T19:46:35;5.68;;;3.08;;
27580;SDS011;15013;52.298;7.978;2022-08-11T19:51:55;7.15;;;3.38;;
27580;SDS011;15013;52.298;7.978;2022-08-11T19:57:14;3.30;;;3.10;;
27580;SDS011;15013;52.298;7.978;2022-08-11T20:02:34;4.30;;;3.00;;
27580;SDS011;15013;52.298;7.978;2022-08-11T20:07:53;6.78;;;3.22;;
27580;SDS011;15013;52.298;7.978;2022-08-11T20:13:13;5.13;;;2.90;;
27580;SDS011;15013;52.298;7.978;2022-08-11T20:18:33;5.25;;;3.33;;
27580;SDS011;15013;52.298;7.978;2022-08-11T20:23:52;6.75;;;3.28;;
27580;SDS011;15013;52.298;7.978;2022-08-11T20:29:12;5.07;;;3.50;;
27580;SDS011;15013;52.298;7.978;2022-08-11T20:34:31;7.03;;;3.63;;
27580;SDS011;15013;52.298;7.978;2022-08-11T20:39:52;7.38;;;3.90;;
27580;SDS011;15013;52.298;7.978;2022-08-11T20:45:12;6.18;;;2.90;;
27580;SDS011;15013;52.298;7.978;2022-08-11T20:50:31;5.22;;;3.42;;
27580;SDS011;15013;52.298;7.978;2022-08-11T20:55:52;4.38;;;3.97;;
27580;SDS011;15013;52.298;7.978;2022-08-11T21:01:11;8.07;;;3.60;;
27580;SDS011;15013;52.298;7.978;2022-08-11T21:06:31;4.60;;;3.47;;
27580;SDS011;15013;52.298;7.978;2022-08-11T21:11:54;6.00;;;3.53;;
27580;SDS011;15013;52.298;7.978;2022-08-11T21:17:14;10.10;;;3.72;;
27580;SDS011;15013;52.298;7.978;2022-08-11T21:22:35;3.58;;;3.17;;
27580;SDS011;15013;52.298;7.978;2022-08-11T21:27:58;5.63;;;4.30;;
27580;SDS011;15013;52.298;7.978;2022-08-11T21:33:18;5.07;;;3.45;;
27580;SDS011;15013;52.298;7.978;2022-08-11T21:38:37;5.05;;;4.55;;
27580;SDS011;15013;52.298;7.978;2022-08-11T21:43:56;6.47;;;4.55;;
27580;SDS011;15013;52.298;7.978;2022-08-11T21:49:16;7.15;;;4.18;;
27580;SDS011;15013;52.298;7.978;2022-08-11T21:54:36;5.25;;;3.88;;
27580;SDS011;15013;52.298;7.978;2022-08-11T21:59:56;6.28;;;4.95;;
27580;SDS011;15013;52.298;7.978;2022-08-11T22:05:15;5.70;;;4.70;;
27580;SDS011;15013;52.298;7.978;2022-08-11T22:10:34;9.23;;;4.30;;
27580;SDS011;15013;52.298;7.978;2022-08-11T22:15:54;11.68;;;3.70;;
27580;SDS011;15013;52.298;7.978;2022-08-11T22:21:12;6.63;;;4.18;;
27580;SDS011;15013;52.298;7.978;2022-08-11T22:26:33;4.18;;;3.83;;
27580;SDS011;15013;52.298;7.978;2022-08-11T22:31:52;3.90;;;3.60;;
27580;SDS011;15013;52.298;7.978;2022-08-11T22:37:12;6.65;;;4.15;;
27580;SDS011;15013;52.298;7.978;2022-08-11T22:42:32;5.20;;;3.97;;
27580;SDS011;15013;52.298;7.978;2022-08-11T22:47:51;12.30;;;4.55;;
27580;SDS011;15013;52.298;7.978;2022-08-11T22:53:10;5.30;;;4.50;;
27580;SDS011;15013;52.298;7.978;2022-08-11T22:58:29;10.20;;;4.85;;
27580;SDS011;15013;52.298;7.978;2022-08-11T23:03:48;7.18;;;4.32;;
27580;SDS011;15013;52.298;7.978;2022-08-11T23:09:08;6.25;;;4.15;;
27580;SDS011;15013;52.298;7.978;2022-08-11T23:14:26;9.30;;;5.00;;
27580;SDS011;15013;52.298;7.978;2022-08-11T23:19:46;5.10;;;4.60;;
27580;SDS011;15013;52.298;7.978;2022-08-11T23:25:06;6.38;;;4.70;;
27580;SDS011;15013;52.298;7.978;2022-08-11T23:30:25;11.43;;;4.88;;
27580;SDS011;15013;52.298;7.978;2022-08-11T23:35:44;5.43;;;4.65;;
27580;SDS011;15013;52.298;7.978;2022-08-11T23:41:04;7.43;;;4.55;;
27580;SDS011;15013;52.298;7.978;2022-08-11T23:46:24;5.70;;;5.00;;
27580;SDS011;15013;52.298;7.978;2022-08-11T23:51:44;8.35;;;5.28;;
27580;SDS011;15013;52.298;7.978;2022-08-11T23:57:04;6.35;;;5.10;;
